Time;durP1;ratioP1;P1;durP2;ratioP2;P2;SDS_P1;SDS_P2;PMS_P1;PMS_P2;Temp;Humidity;BMP_temperature;BMP_pressure;BME280_temperature;BME280_humidity;BME280_pressure;Samples;Min_cycle;Max_cycle;Signal;HPM_P1;HPM_P2
2024/01/12 00:00:51;;;;;;;;;;;;;;;;;;53338;1251;1060324;-79
2024/01/12 00:03:38;;;;;;;;;;;;;;;;;;53305;1255;1057943;-79
2024/01/12 00:06:04;;;;;;;;;;;;;;;;;;53020;1251;1005449;-79
2024/01/12 00:08:32;;;;;;;;;;;;;;;;;;52980;1253;1059101;-79
2024/01/12 00:10:59;;;;;;;;;;;;;;;;;;53015;1253;1005671;-79
2024/01/12 00:13:25;;;;;;;;;;;;;;;;;;52940;1251;1039053;-79
2024/01/12 00:15:52;;;;;;;;;;;;;;;;;;52914;1254;1005580;-79
2024/01/12 00:18:18;;;;;;;;;;;;;;;;;;52938;1251;1045202;-79
2024/01/12 00:20:45;;;;;;;;;;;;;;;;;;53028;1253;1005107;-79
2024/01/12 00:23:11;;;;;;;;;;;;;;;;;;52935;1251;1060705;-79
2024/01/12 00:25:38;;;;;;;;;;;;;;;;;;52936;1251;1005513;-79
2024/01/12 00:28:04;;;;;;;;;;;;;;;;;;52910;1251;1056593;-79
2024/01/12 00:30:31;;;;;;;;;;;;;;;;;;52947;1253;1005554;-79
2024/01/12 00:32:57;;;;;;;;;;;;;;;;;;53045;1253;1057498;-79
2024/01/12 00:35:24;;;;;;;;;;;;;;;;;;52949;1251;1005202;-79
2024/01/12 00:37:50;;;;;;;;;;;;;;;;;;53871;1251;1038841;-80
2024/01/12 00:40:17;;;;;;;;;;;;;;;;;;54169;1251;1003192;-79
2024/01/12 00:42:43;;;;;;;;;;;;;;;;;;54229;1251;1045218;-79
2024/01/12 00:45:10;;;;;;;;;;;;;;;;;;54209;1251;1003513;-79
2024/01/12 00:47:36;;;;;;;;;;;;;;;;;;54229;1251;1060112;-79
2024/01/12 00:50:03;;;;;;;;;;;;;;;;;;54184;1252;1003392;-79
2024/01/12 00:52:29;;;;;;;;;;;;;;;;;;54203;1252;1056787;-80
2024/01/12 00:54:56;;;;;;;;;;;;;;;;;;54182;1251;1003356;-79
2024/01/12 00:57:22;;;;;;;;;;;;;;;;;;54225;1251;1058207;-80
2024/01/12 00:59:50;;;;;;;;;;;;;;;;;;54195;1252;1003242;-79
2024/01/12 01:02:16;;;;;;;;;;;;;;;;;;54215;1251;1038512;-79
2024/01/12 01:04:43;;;;;;;;;;;;;;;;;;54149;1252;1003218;-80
2024/01/12 01:07:09;;;;;;;;;;;;;;;;;;54225;1251;1045212;-79
2024/01/12 01:09:36;;;;;;;;;;;;;;;;;;54169;1255;1003678;-79
2024/01/12 01:12:02;;;;;;;;;;;;;;;;;;54191;1251;1060116;-78
2024/01/12 01:14:28;;;;;;;;;;;;;;;;;;54210;1251;1003430;-78
2024/01/12 01:16:55;;;;;;;;;;;;;;;;;;54227;1250;1055958;-78
2024/01/12 01:19:22;;;;;;;;;;;;;;;;;;53033;1251;1004910;-79
2024/01/12 01:21:49;;;;;;;;;;;;;;;;;;53012;1253;1058675;-80
2024/01/12 01:24:15;;;;;;;;;;;;;;;;;;52963;1251;1005939;-80
2024/01/12 01:26:42;;;;;;;;;;;;;;;;;;53284;1252;1038543;-80
2024/01/12 01:29:08;;;;;;;;;;;;;;;;;;54169;1252;1003340;-79
2024/01/12 01:31:35;;;;;;;;;;;;;;;;;;54209;1251;1046490;-79
2024/01/12 01:34:01;;;;;;;;;;;;;;;;;;54215;1251;1003521;-79
2024/01/12 01:36:28;;;;;;;;;;;;;;;;;;54187;1253;1060696;-78
2024/01/12 01:38:54;;;;;;;;;;;;;;;;;;54236;1251;1003166;-79
2024/01/12 01:41:21;;;;;;;;;;;;;;;;;;53973;1251;1057246;-78
2024/01/12 01:43:47;;;;;;;;;;;;;;;;;;52993;1252;1005300;-78
2024/01/12 01:46:14;;;;;;;;;;;;;;;;;;52974;1252;1058592;-79
2024/01/12 01:48:40;;;;;;;;;;;;;;;;;;54197;1250;1003365;-79
2024/01/12 01:51:07;;;;;;;;;;;;;;;;;;54175;1252;1038313;-79
2024/01/12 01:53:33;;;;;;;;;;;;;;;;;;54198;1250;1003493;-78
2024/01/12 01:55:59;;;;;;;;;;;;;;;;;;54217;1251;1045644;-79
2024/01/12 01:58:26;;;;;;;;;;;;;;;;;;54166;1251;1003298;-79
2024/01/12 02:00:52;;;;;;;;;;;;;;;;;;54207;1252;1060495;-79
2024/01/12 02:03:19;;;;;;;;;;;;;;;;;;54212;1251;1003265;-79
2024/01/12 02:05:46;;;;;;;;;;;;;;;;;;54231;1251;1057153;-78
2024/01/12 02:08:12;;;;;;;;;;;;;;;;;;54213;1251;1003352;-78
2024/01/12 02:10:39;;;;;;;;;;;;;;;;;;54210;1251;1058487;-78
2024/01/12 02:13:05;;;;;;;;;;;;;;;;;;54073;1252;1003510;-78
2024/01/12 02:15:32;;;;;;;;;;;;;;;;;;52989;1253;1038751;-78
2024/01/12 02:17:58;;;;;;;;;;;;;;;;;;53919;1252;1003580;-78
2024/01/12 02:20:25;;;;;;;;;;;;;;;;;;54189;1253;1045607;-79
2024/01/12 02:22:51;;;;;;;;;;;;;;;;;;54224;1251;1003048;-79
2024/01/12 02:25:18;;;;;;;;;;;;;;;;;;53905;1250;1060854;-79
2024/01/12 02:27:44;;;;;;;;;;;;;;;;;;52930;1253;1005203;-78
2024/01/12 02:30:11;;;;;;;;;;;;;;;;;;52983;1253;1056870;-78
2024/01/12 02:32:37;;;;;;;;;;;;;;;;;;53894;1251;1003619;-78
2024/01/12 02:35:04;;;;;;;;;;;;;;;;;;54151;1253;1058078;-78
2024/01/12 02:37:30;;;;;;;;;;;;;;;;;;54190;1251;1003262;-78
2024/01/12 02:39:57;;;;;;;;;;;;;;;;;;54188;1252;1038602;-78
2024/01/12 02:42:23;;;;;;;;;;;;;;;;;;54206;1251;1003083;-78
2024/01/12 02:44:49;;;;;;;;;;;;;;;;;;54221;1251;1045461;-78
2024/01/12 02:47:17;;;;;;;;;;;;;;;;;;54227;1251;1003561;-78
2024/01/12 02:49:44;;;;;;;;;;;;;;;;;;54237;1250;1060264;-78
2024/01/12 02:52:10;;;;;;;;;;;;;;;;;;54209;1251;1003343;-78
2024/01/12 02:54:37;;;;;;;;;;;;;;;;;;54201;1251;1057321;-78
2024/01/12 02:57:03;;;;;;;;;;;;;;;;;;54201;1251;1003463;-78
2024/01/12 02:59:30;;;;;;;;;;;;;;;;;;54164;1253;1057797;-78
2024/01/12 03:01:56;;;;;;;;;;;;;;;;;;54225;1251;1003362;-79
2024/01/12 03:04:23;;;;;;;;;;;;;;;;;;54173;1254;1038386;-79
2024/01/12 03:06:49;;;;;;;;;;;;;;;;;;53436;1253;1004966;-78
2024/01/12 03:09:16;;;;;;;;;;;;;;;;;;53619;1253;1045613;-79
2024/01/12 03:11:42;;;;;;;;;;;;;;;;;;54240;1251;1003528;-79
2024/01/12 03:14:08;;;;;;;;;;;;;;;;;;53775;1250;1060461;-79
2024/01/12 03:16:35;;;;;;;;;;;;;;;;;;52967;1250;1005147;-79
2024/01/12 03:19:01;;;;;;;;;;;;;;;;;;52986;1250;1056611;-78
2024/01/12 03:21:28;;;;;;;;;;;;;;;;;;53018;1253;1006453;-79
2024/01/12 03:23:54;;;;;;;;;;;;;;;;;;52956;1250;1058438;-79
2024/01/12 03:26:21;;;;;;;;;;;;;;;;;;52957;1253;1005136;-78
2024/01/12 03:28:48;;;;;;;;;;;;;;;;;;52936;1255;1038816;-79
2024/01/12 03:31:14;;;;;;;;;;;;;;;;;;52962;1253;1006220;-78
2024/01/12 03:33:41;;;;;;;;;;;;;;;;;;52921;1253;1045492;-79
2024/01/12 03:36:07;;;;;;;;;;;;;;;;;;52944;1251;1005782;-79
2024/01/12 03:38:34;;;;;;;;;;;;;;;;;;52926;1253;1060958;-78
2024/01/12 03:41:01;;;;;;;;;;;;;;;;;;53598;1253;1005471;-79
2024/01/12 03:43:27;;;;;;;;;;;;;;;;;;54193;1250;1057173;-79
2024/01/12 03:45:54;;;;;;;;;;;;;;;;;;54193;1253;1003466;-79
2024/01/12 03:48:20;;;;;;;;;;;;;;;;;;52935;1251;1057850;-79
2024/01/12 03:50:47;;;;;;;;;;;;;;;;;;52903;1251;1005659;-78
2024/01/12 03:53:13;;;;;;;;;;;;;;;;;;52926;1255;1038177;-79
2024/01/12 03:55:40;;;;;;;;;;;;;;;;;;52891;1251;1005376;-78
2024/01/12 03:58:06;;;;;;;;;;;;;;;;;;52889;1253;1048330;-78
2024/01/12 04:00:33;;;;;;;;;;;;;;;;;;52943;1253;1004767;-78
2024/01/12 04:02:59;;;;;;;;;;;;;;;;;;52931;1252;1060514;-78
2024/01/12 04:05:26;;;;;;;;;;;;;;;;;;54200;1253;1003507;-78
2024/01/12 04:07:52;;;;;;;;;;;;;;;;;;54196;1253;1056943;-78
2024/01/12 04:10:19;;;;;;;;;;;;;;;;;;53881;1253;1004884;-79
2024/01/12 04:12:46;;;;;;;;;;;;;;;;;;52842;1254;1058051;-78
2024/01/12 04:15:12;;;;;;;;;;;;;;;;;;52872;1255;1004977;-78
2024/01/12 04:17:38;;;;;;;;;;;;;;;;;;52887;1253;1039346;-79
2024/01/12 04:20:05;;;;;;;;;;;;;;;;;;52830;1252;1005455;-78
2024/01/12 04:22:32;;;;;;;;;;;;;;;;;;52871;1253;1045751;-79
2024/01/12 04:24:58;;;;;;;;;;;;;;;;;;52903;1253;1005768;-79
2024/01/12 04:27:26;;;;;;;;;;;;;;;;;;52908;1253;1059826;-79
2024/01/12 04:29:53;;;;;;;;;;;;;;;;;;52894;1253;1006381;-79
2024/01/12 04:32:19;;;;;;;;;;;;;;;;;;52857;1253;1056544;-79
2024/01/12 04:34:46;;;;;;;;;;;;;;;;;;52898;1255;1005223;-79
2024/01/12 04:37:12;;;;;;;;;;;;;;;;;;52938;1255;1058733;-79
2024/01/12 04:39:39;;;;;;;;;;;;;;;;;;52860;1253;1006079;-78
2024/01/12 04:42:05;;;;;;;;;;;;;;;;;;52889;1255;1038175;-78
2024/01/12 04:44:31;;;;;;;;;;;;;;;;;;52945;1254;1005467;-79
2024/01/12 04:46:58;;;;;;;;;;;;;;;;;;52988;1251;1045096;-79
2024/01/12 04:49:24;;;;;;;;;;;;;;;;;;52940;1253;1005429;-78
2024/01/12 04:51:51;;;;;;;;;;;;;;;;;;53006;1252;1060930;-80
2024/01/12 04:54:18;;;;;;;;;;;;;;;;;;53266;1257;1005967;-81
2024/01/12 04:56:44;;;;;;;;;;;;;;;;;;53336;1253;1056200;-80
2024/01/12 04:59:11;;;;;;;;;;;;;;;;;;53264;1256;1005548;-80
2024/01/12 05:01:37;;;;;;;;;;;;;;;;;;53319;1253;1057535;-80
2024/01/12 05:04:04;;;;;;;;;;;;;;;;;;53480;1254;1005719;-80
2024/01/12 05:06:30;;;;;;;;;;;;;;;;;;53514;1251;1038426;-79
2024/01/12 05:08:57;;;;;;;;;;;;;;;;;;53507;1256;1003764;-79
2024/01/12 05:11:25;;;;;;;;;;;;;;;;;;53630;1251;1046873;-78
2024/01/12 05:13:52;;;;;;;;;;;;;;;;;;53318;1251;1005449;-81
2024/01/12 05:16:19;;;;;;;;;;;;;;;;;;53164;1253;1005281;-81
2024/01/12 05:18:45;;;;;;;;;;;;;;;;;;53222;1251;1060473;-79
2024/01/12 05:21:12;;;;;;;;;;;;;;;;;;53014;1251;1005054;-79
2024/01/12 05:23:38;;;;;;;;;;;;;;;;;;52925;1251;1057004;-79
2024/01/12 05:26:05;;;;;;;;;;;;;;;;;;52899;1253;1005380;-78
2024/01/12 05:28:31;;;;;;;;;;;;;;;;;;52916;1254;1058053;-78
2024/01/12 05:30:58;;;;;;;;;;;;;;;;;;52944;1254;1004999;-78
2024/01/12 05:33:24;;;;;;;;;;;;;;;;;;53134;1251;1038370;-79
2024/01/12 05:35:50;;;;;;;;;;;;;;;;;;54181;1256;1003435;-79
2024/01/12 05:38:18;;;;;;;;;;;;;;;;;;54207;1251;1045746;-79
2024/01/12 05:40:45;;;;;;;;;;;;;;;;;;54199;1251;1003947;-80
2024/01/12 05:43:11;;;;;;;;;;;;;;;;;;54232;1251;1060140;-79
2024/01/12 05:45:38;;;;;;;;;;;;;;;;;;54185;1252;1003471;-79
2024/01/12 05:48:04;;;;;;;;;;;;;;;;;;54197;1251;1056774;-79
2024/01/12 05:50:30;;;;;;;;;;;;;;;;;;54201;1252;1003069;-79
2024/01/12 05:52:57;;;;;;;;;;;;;;;;;;54178;1255;1057825;-79
2024/01/12 05:55:24;;;;;;;;;;;;;;;;;;53716;1254;1005219;-78
2024/01/12 05:57:51;;;;;;;;;;;;;;;;;;52978;1256;1038870;-79
2024/01/12 06:00:17;;;;;;;;;;;;;;;;;;52966;1254;1003500;-79
2024/01/12 06:02:44;;;;;;;;;;;;;;;;;;52976;1251;1045921;-79
2024/01/12 06:05:10;;;;;;;;;;;;;;;;;;52926;1256;1005430;-79
2024/01/12 06:07:37;;;;;;;;;;;;;;;;;;53004;1254;1060152;-78
2024/01/12 06:10:04;;;;;;;;;;;;;;;;;;53064;1251;1005844;-79
2024/01/12 06:12:31;;;;;;;;;;;;;;;;;;53069;1251;1056030;-78
2024/01/12 06:14:59;;;;;;;;;;;;;;;;;;53994;1251;1003799;-79
2024/01/12 06:17:26;;;;;;;;;;;;;;;;;;54217;1251;1058003;-79
2024/01/12 06:19:53;;;;;;;;;;;;;;;;;;54218;1250;1003450;-79
2024/01/12 06:22:19;;;;;;;;;;;;;;;;;;54140;1256;1038244;-79
2024/01/12 06:24:46;;;;;;;;;;;;;;;;;;54190;1251;1003599;-78
2024/01/12 06:27:12;;;;;;;;;;;;;;;;;;54206;1251;1045155;-79
2024/01/12 06:29:39;;;;;;;;;;;;;;;;;;54240;1250;1003333;-79
2024/01/12 06:32:05;;;;;;;;;;;;;;;;;;53113;1251;1060394;-78
2024/01/12 06:34:32;;;;;;;;;;;;;;;;;;54036;1251;1187654;-78
2024/01/12 06:36:58;;;;;;;;;;;;;;;;;;54211;1251;1057180;-79
2024/01/12 06:39:25;;;;;;;;;;;;;;;;;;54196;1251;1003231;-79
2024/01/12 06:41:52;;;;;;;;;;;;;;;;;;54166;1254;1058077;-79
2024/01/12 06:44:19;;;;;;;;;;;;;;;;;;54165;1255;1003559;-79
2024/01/12 06:46:45;;;;;;;;;;;;;;;;;;54162;1252;1037700;-79
2024/01/12 06:49:12;;;;;;;;;;;;;;;;;;54186;1251;1003290;-78
2024/01/12 06:51:38;;;;;;;;;;;;;;;;;;53913;1255;1045053;-78
2024/01/12 06:54:05;;;;;;;;;;;;;;;;;;53038;1251;1003620;-78
2024/01/12 06:56:32;;;;;;;;;;;;;;;;;;53104;1255;1060997;-79
2024/01/12 06:58:59;;;;;;;;;;;;;;;;;;53036;1255;1005347;-79
2024/01/12 07:01:25;;;;;;;;;;;;;;;;;;52967;1251;1056413;-79
2024/01/12 07:03:52;;;;;;;;;;;;;;;;;;53117;1253;1005395;-78
2024/01/12 07:06:18;;;;;;;;;;;;;;;;;;53058;1254;1058249;-78
2024/01/12 07:08:45;;;;;;;;;;;;;;;;;;52970;1253;1005393;-78
2024/01/12 07:11:11;;;;;;;;;;;;;;;;;;52966;1251;1039019;-78
2024/01/12 07:13:38;;;;;;;;;;;;;;;;;;53074;1251;1005563;-78
2024/01/12 07:16:04;;;;;;;;;;;;;;;;;;53134;1251;1046120;-78
2024/01/12 07:18:31;;;;;;;;;;;;;;;;;;53092;1254;1005896;-78
2024/01/12 07:21:02;;;;;;;;;;;;;;;;;;53177;1251;1059989;-79
2024/01/12 07:23:30;;;;;;;;;;;;;;;;;;53315;1251;1060060;-78
2024/01/12 07:25:57;;;;;;;;;;;;;;;;;;53001;1251;1005658;-78
2024/01/12 07:28:24;;;;;;;;;;;;;;;;;;53089;1251;1057217;-79
2024/01/12 07:30:50;;;;;;;;;;;;;;;;;;53084;1251;1005809;-79
2024/01/12 07:33:17;;;;;;;;;;;;;;;;;;53010;1251;1058162;-79
2024/01/12 07:35:43;;;;;;;;;;;;;;;;;;53790;1251;1004690;-79
2024/01/12 07:38:10;;;;;;;;;;;;;;;;;;54153;1251;1038583;-78
2024/01/12 07:40:37;;;;;;;;;;;;;;;;;;54169;1251;1003489;-79
2024/01/12 07:43:03;;;;;;;;;;;;;;;;;;54122;1252;1045730;-78
2024/01/12 07:45:30;;;;;;;;;;;;;;;;;;54171;1251;1003098;-78
2024/01/12 07:47:56;;;;;;;;;;;;;;;;;;54155;1250;1060340;-79
2024/01/12 07:50:23;;;;;;;;;;;;;;;;;;54217;1251;1003333;-78
2024/01/12 07:52:49;;;;;;;;;;;;;;;;;;54156;1250;1056357;-78
2024/01/12 07:55:16;;;;;;;;;;;;;;;;;;54200;1251;1003411;-79
2024/01/12 07:57:42;;;;;;;;;;;;;;;;;;54131;1251;1058299;-79
2024/01/12 08:00:11;;;;;;;;;;;;;;;;;;54208;1252;1003361;-78
2024/01/12 08:02:37;;;;;;;;;;;;;;;;;;54123;1251;1038940;-78
2024/01/12 08:05:05;;;;;;;;;;;;;;;;;;54111;1251;1003368;-79
2024/01/12 08:07:32;;;;;;;;;;;;;;;;;;54189;1251;1045753;-79
2024/01/12 08:09:59;;;;;;;;;;;;;;;;;;54140;1251;1003198;-79
2024/01/12 08:12:25;;;;;;;;;;;;;;;;;;54148;1251;1059974;-79
2024/01/12 08:14:52;;;;;;;;;;;;;;;;;;54171;1251;1003111;-79
2024/01/12 08:17:18;;;;;;;;;;;;;;;;;;54174;1251;1057613;-81
2024/01/12 08:19:46;;;;;;;;;;;;;;;;;;54224;1251;1003420;-81
2024/01/12 08:22:13;;;;;;;;;;;;;;;;;;54170;1252;1058401;-81
2024/01/12 08:24:40;;;;;;;;;;;;;;;;;;54167;1251;1003163;-80
2024/01/12 08:27:06;;;;;;;;;;;;;;;;;;54155;1251;1038423;-79
2024/01/12 08:29:33;;;;;;;;;;;;;;;;;;54216;1251;1003471;-79
2024/01/12 08:32:00;;;;;;;;;;;;;;;;;;54216;1251;1045320;-79
2024/01/12 08:34:27;;;;;;;;;;;;;;;;;;54202;1250;1003085;-79
2024/01/12 08:36:53;;;;;;;;;;;;;;;;;;54141;1253;1060395;-78
2024/01/12 08:39:20;;;;;;;;;;;;;;;;;;54209;1251;1003513;-79
2024/01/12 08:41:47;;;;;;;;;;;;;;;;;;54185;1250;1057329;-79
2024/01/12 08:44:13;;;;;;;;;;;;;;;;;;54211;1250;1003433;-79
2024/01/12 08:46:40;;;;;;;;;;;;;;;;;;54168;1251;1058038;-79
2024/01/12 08:49:06;;;;;;;;;;;;;;;;;;54217;1251;1003347;-79
2024/01/12 08:51:33;;;;;;;;;;;;;;;;;;54106;1251;1038032;-79
2024/01/12 08:53:59;;;;;;;;;;;;;;;;;;54158;1251;1003552;-79
2024/01/12 08:56:26;;;;;;;;;;;;;;;;;;54267;1251;1044963;-79
2024/01/12 08:58:52;;;;;;;;;;;;;;;;;;54239;1251;1003138;-79
2024/01/12 09:01:19;;;;;;;;;;;;;;;;;;54160;1251;1060098;-78
2024/01/12 09:03:45;;;;;;;;;;;;;;;;;;54143;1251;1003490;-79
2024/01/12 09:06:12;;;;;;;;;;;;;;;;;;54122;1251;1057070;-81
2024/01/12 09:08:38;;;;;;;;;;;;;;;;;;54166;1252;1003483;-81
2024/01/12 09:11:05;;;;;;;;;;;;;;;;;;54201;1250;1058436;-81
2024/01/12 09:13:31;;;;;;;;;;;;;;;;;;54136;1251;1003313;-81
2024/01/12 09:15:58;;;;;;;;;;;;;;;;;;54156;1251;1038848;-81
2024/01/12 09:18:24;;;;;;;;;;;;;;;;;;54196;1251;1003465;-81
2024/01/12 09:20:51;;;;;;;;;;;;;;;;;;54224;1250;1044924;-81
2024/01/12 09:23:18;;;;;;;;;;;;;;;;;;54154;1251;1003205;-80
2024/01/12 09:25:44;;;;;;;;;;;;;;;;;;54118;1251;1059641;-80
2024/01/12 09:28:11;;;;;;;;;;;;;;;;;;54175;1252;1003407;-81
2024/01/12 09:30:39;;;;;;;;;;;;;;;;;;54162;1251;1056768;-81
2024/01/12 09:33:06;;;;;;;;;;;;;;;;;;54179;1249;1003453;-81
2024/01/12 09:35:32;;;;;;;;;;;;;;;;;;54240;1250;1003192;-81
2024/01/12 09:37:59;;;;;;;;;;;;;;;;;;53999;1253;1058694;-80
2024/01/12 09:40:25;;;;;;;;;;;;;;;;;;53312;1251;1004803;-79
2024/01/12 09:42:52;;;;;;;;;;;;;;;;;;53110;1251;1038700;-78
2024/01/12 09:45:18;;;;;;;;;;;;;;;;;;53129;1251;1005634;-78
2024/01/12 09:47:45;;;;;;;;;;;;;;;;;;53083;1251;1045607;-78
2024/01/12 09:50:11;;;;;;;;;;;;;;;;;;53012;1251;1005718;-78
2024/01/12 09:52:38;;;;;;;;;;;;;;;;;;53084;1252;1059897;-79
2024/01/12 09:55:04;;;;;;;;;;;;;;;;;;53149;1250;1005052;-78
2024/01/12 09:57:31;;;;;;;;;;;;;;;;;;53583;1253;1057785;-79
2024/01/12 09:59:59;;;;;;;;;;;;;;;;;;54160;1251;1003779;-79
2024/01/12 10:02:25;;;;;;;;;;;;;;;;;;54169;1250;1058042;-81
2024/01/12 10:04:52;;;;;;;;;;;;;;;;;;53462;1251;1006222;-81
2024/01/12 10:07:18;;;;;;;;;;;;;;;;;;53320;1251;1038037;-81
2024/01/12 10:09:45;;;;;;;;;;;;;;;;;;53679;1251;1003731;-79
2024/01/12 10:12:11;;;;;;;;;;;;;;;;;;54165;1250;1045334;-79
2024/01/12 10:14:38;;;;;;;;;;;;;;;;;;54177;1251;1003535;-78
2024/01/12 10:17:04;;;;;;;;;;;;;;;;;;54160;1251;1059715;-78
2024/01/12 10:19:31;;;;;;;;;;;;;;;;;;54159;1251;1003214;-79
2024/01/12 10:21:57;;;;;;;;;;;;;;;;;;54207;1251;1056395;-79
2024/01/12 10:24:24;;;;;;;;;;;;;;;;;;54162;1249;1003318;-78
2024/01/12 10:26:51;;;;;;;;;;;;;;;;;;54174;1250;1058048;-78
2024/01/12 10:29:17;;;;;;;;;;;;;;;;;;54162;1251;1003458;-78
2024/01/12 10:31:43;;;;;;;;;;;;;;;;;;54173;1251;1037829;-79
2024/01/12 10:34:13;;;;;;;;;;;;;;;;;;54206;1250;1003384;-78
2024/01/12 10:36:39;;;;;;;;;;;;;;;;;;54178;1250;1046033;-78
2024/01/12 10:39:06;;;;;;;;;;;;;;;;;;54178;1250;1003212;-78
2024/01/12 10:41:32;;;;;;;;;;;;;;;;;;53812;1251;1059712;-78
2024/01/12 10:43:59;;;;;;;;;;;;;;;;;;52910;1251;1005875;-78
2024/01/12 10:46:26;;;;;;;;;;;;;;;;;;52938;1251;1057548;-78
2024/01/12 10:48:52;;;;;;;;;;;;;;;;;;53102;1251;1005863;-79
2024/01/12 10:51:19;;;;;;;;;;;;;;;;;;52966;1251;1057898;-81
2024/01/12 10:53:45;;;;;;;;;;;;;;;;;;53194;1251;1005261;-81
2024/01/12 10:56:11;;;;;;;;;;;;;;;;;;53210;1251;1038047;-81
2024/01/12 10:58:38;;;;;;;;;;;;;;;;;;53287;1251;1005433;-81
2024/01/12 11:01:05;;;;;;;;;;;;;;;;;;53111;1251;1046269;-81
2024/01/12 11:03:31;;;;;;;;;;;;;;;;;;53077;1250;1005666;-81
2024/01/12 11:05:58;;;;;;;;;;;;;;;;;;53377;1251;1060260;-81
2024/01/12 11:08:24;;;;;;;;;;;;;;;;;;53406;1252;1004996;-81
2024/01/12 11:10:51;;;;;;;;;;;;;;;;;;53302;1252;1056847;-81
2024/01/12 11:13:18;;;;;;;;;;;;;;;;;;53185;1251;1005106;-81
2024/01/12 11:15:45;;;;;;;;;;;;;;;;;;53225;1254;1058051;-81
2024/01/12 11:18:13;;;;;;;;;;;;;;;;;;53227;1251;1003575;-81
2024/01/12 11:20:40;;;;;;;;;;;;;;;;;;53202;1251;1037977;-81
2024/01/12 11:23:07;;;;;;;;;;;;;;;;;;53673;1251;1005093;-81
2024/01/12 11:25:33;;;;;;;;;;;;;;;;;;54166;1252;1045191;-81
2024/01/12 11:28:00;;;;;;;;;;;;;;;;;;54166;1252;1003257;-81
2024/01/12 11:30:28;;;;;;;;;;;;;;;;;;54140;1251;1060904;-81
2024/01/12 11:32:54;;;;;;;;;;;;;;;;;;54116;1251;1004030;-81
2024/01/12 11:35:21;;;;;;;;;;;;;;;;;;54019;1251;1056973;-81
2024/01/12 11:37:48;;;;;;;;;;;;;;;;;;54050;1250;1003795;-81
2024/01/12 11:40:14;;;;;;;;;;;;;;;;;;54162;1251;1057257;-81
2024/01/12 11:42:40;;;;;;;;;;;;;;;;;;54135;1251;1003492;-81
2024/01/12 11:45:07;;;;;;;;;;;;;;;;;;54087;1254;1039091;-81
2024/01/12 11:47:33;;;;;;;;;;;;;;;;;;54153;1251;1003437;-81
2024/01/12 11:50:00;;;;;;;;;;;;;;;;;;54148;1252;1044998;-81
2024/01/12 11:52:27;;;;;;;;;;;;;;;;;;54106;1253;1003147;-81
2024/01/12 11:54:53;;;;;;;;;;;;;;;;;;54146;1251;1060169;-81
2024/01/12 11:57:20;;;;;;;;;;;;;;;;;;54154;1253;1004004;-81
2024/01/12 11:59:47;;;;;;;;;;;;;;;;;;54147;1251;1056631;-81
2024/01/12 12:02:13;;;;;;;;;;;;;;;;;;54172;1251;1003247;-80
2024/01/12 12:04:40;;;;;;;;;;;;;;;;;;54142;1251;1058533;-81
2024/01/12 12:07:06;;;;;;;;;;;;;;;;;;54103;1254;1003391;-81
2024/01/12 12:09:33;;;;;;;;;;;;;;;;;;54147;1251;1038533;-81
2024/01/12 12:11:59;;;;;;;;;;;;;;;;;;54124;1251;1003336;-81
2024/01/12 12:14:26;;;;;;;;;;;;;;;;;;54138;1251;1045118;-81
2024/01/12 12:16:52;;;;;;;;;;;;;;;;;;54110;1267;1003432;-81
2024/01/12 12:19:19;;;;;;;;;;;;;;;;;;54125;1251;1060681;-81
2024/01/12 12:21:46;;;;;;;;;;;;;;;;;;54107;1251;1003948;-81
2024/01/12 12:24:12;;;;;;;;;;;;;;;;;;54122;1253;1056485;-81
2024/01/12 12:26:41;;;;;;;;;;;;;;;;;;54113;1251;1003525;-81
2024/01/12 12:29:08;;;;;;;;;;;;;;;;;;53945;1251;1058447;-81
2024/01/12 12:31:34;;;;;;;;;;;;;;;;;;53342;1253;1005330;-81
2024/01/12 12:34:01;;;;;;;;;;;;;;;;;;53477;1251;1038153;-81
2024/01/12 12:36:27;;;;;;;;;;;;;;;;;;54098;1251;1003478;-81
2024/01/12 12:38:54;;;;;;;;;;;;;;;;;;54096;1251;1046268;-81
2024/01/12 12:41:20;;;;;;;;;;;;;;;;;;54176;1251;1003268;-81
2024/01/12 12:43:50;;;;;;;;;;;;;;;;;;54126;1251;1059800;-81
2024/01/12 12:46:16;;;;;;;;;;;;;;;;;;54173;1250;1003580;-81
2024/01/12 12:48:43;;;;;;;;;;;;;;;;;;54162;1250;1003201;-81
2024/01/12 12:51:10;;;;;;;;;;;;;;;;;;54114;1251;1057195;-81
2024/01/12 12:53:37;;;;;;;;;;;;;;;;;;54120;1251;1003251;-81
2024/01/12 12:56:03;;;;;;;;;;;;;;;;;;54109;1251;1058548;-81
2024/01/12 12:58:31;;;;;;;;;;;;;;;;;;54131;1252;1003302;-81
2024/01/12 13:00:58;;;;;;;;;;;;;;;;;;54142;1251;1038702;-81
2024/01/12 13:03:24;;;;;;;;;;;;;;;;;;53659;1254;1005455;-81
2024/01/12 13:05:51;;;;;;;;;;;;;;;;;;54127;1251;1045527;-81
2024/01/12 13:08:19;;;;;;;;;;;;;;;;;;54134;1251;1003521;-81
2024/01/12 13:10:45;;;;;;;;;;;;;;;;;;54181;1250;1060729;-81
2024/01/12 13:13:12;;;;;;;;;;;;;;;;;;54161;1250;1003110;-81
2024/01/12 13:15:39;;;;;;;;;;;;;;;;;;54125;1251;1056288;-81
2024/01/12 13:18:05;;;;;;;;;;;;;;;;;;53740;1254;1003686;-81
2024/01/12 13:20:32;;;;;;;;;;;;;;;;;;53415;1251;1058026;-81
2024/01/12 13:22:59;;;;;;;;;;;;;;;;;;53364;1251;1005501;-81
2024/01/12 13:25:25;;;;;;;;;;;;;;;;;;53478;1251;1038005;-81
2024/01/12 13:27:52;;;;;;;;;;;;;;;;;;53423;1251;1005206;-81
2024/01/12 13:30:18;;;;;;;;;;;;;;;;;;53326;1252;1045883;-82
2024/01/12 13:32:45;;;;;;;;;;;;;;;;;;53475;1251;1005129;-79
2024/01/12 13:35:11;;;;;;;;;;;;;;;;;;53168;1251;1060206;-79
2024/01/12 13:37:38;;;;;;;;;;;;;;;;;;53122;1253;1004780;-79
2024/01/12 13:40:04;;;;;;;;;;;;;;;;;;53684;1251;1056800;-80
2024/01/12 13:42:31;;;;;;;;;;;;;;;;;;54162;1251;1003683;-80
2024/01/12 13:44:58;;;;;;;;;;;;;;;;;;54127;1254;1058533;-80
2024/01/12 13:47:24;;;;;;;;;;;;;;;;;;54113;1252;1003460;-80
2024/01/12 13:49:51;;;;;;;;;;;;;;;;;;54113;1251;1038286;-80
2024/01/12 13:52:17;;;;;;;;;;;;;;;;;;54146;1254;1003373;-80
2024/01/12 13:54:44;;;;;;;;;;;;;;;;;;53612;1250;1045837;-80
2024/01/12 13:57:10;;;;;;;;;;;;;;;;;;53084;1251;1006080;-80
2024/01/12 13:59:37;;;;;;;;;;;;;;;;;;53100;1250;1060336;-79
2024/01/12 14:02:04;;;;;;;;;;;;;;;;;;53052;1251;1006311;-79
2024/01/12 14:04:31;;;;;;;;;;;;;;;;;;53139;1253;1056778;-79
2024/01/12 14:06:57;;;;;;;;;;;;;;;;;;53042;1253;1006176;-79
2024/01/12 14:09:24;;;;;;;;;;;;;;;;;;53034;1251;1057422;-80
2024/01/12 14:11:50;;;;;;;;;;;;;;;;;;53057;1254;1006064;-79
2024/01/12 14:14:17;;;;;;;;;;;;;;;;;;53081;1254;1039043;-79
2024/01/12 14:16:43;;;;;;;;;;;;;;;;;;53086;1251;1006339;-80
2024/01/12 14:19:11;;;;;;;;;;;;;;;;;;53047;1251;1045327;-81
2024/01/12 14:21:37;;;;;;;;;;;;;;;;;;53108;1251;1005344;-80
2024/01/12 14:24:04;;;;;;;;;;;;;;;;;;53007;1251;1060402;-80
2024/01/12 14:26:31;;;;;;;;;;;;;;;;;;53130;1251;1003432;-80
2024/01/12 14:28:57;;;;;;;;;;;;;;;;;;53194;1251;1058451;-79
2024/01/12 14:31:24;;;;;;;;;;;;;;;;;;53092;1251;1006298;-79
2024/01/12 14:33:50;;;;;;;;;;;;;;;;;;52978;1251;1057681;-79
2024/01/12 14:36:17;;;;;;;;;;;;;;;;;;53087;1254;1005493;-79
2024/01/12 14:38:43;;;;;;;;;;;;;;;;;;53040;1251;1038821;-79
2024/01/12 14:41:10;;;;;;;;;;;;;;;;;;53056;1251;1005228;-79
2024/01/12 14:43:37;;;;;;;;;;;;;;;;;;52881;1251;1046707;-79
2024/01/12 14:46:03;;;;;;;;;;;;;;;;;;53063;1251;1005406;-79
2024/01/12 14:48:30;;;;;;;;;;;;;;;;;;52949;1251;1060124;-79
2024/01/12 14:50:56;;;;;;;;;;;;;;;;;;52954;1251;1005869;-79
2024/01/12 14:53:23;;;;;;;;;;;;;;;;;;52979;1251;1057521;-79
2024/01/12 14:55:50;;;;;;;;;;;;;;;;;;53115;1251;1005051;-79
2024/01/12 14:58:16;;;;;;;;;;;;;;;;;;53124;1251;1057772;-79
2024/01/12 15:00:43;;;;;;;;;;;;;;;;;;52858;1254;1005406;-78
2024/01/12 15:03:11;;;;;;;;;;;;;;;;;;52954;1253;1040901;-79
2024/01/12 15:05:40;;;;;;;;;;;;;;;;;;53075;1251;1004793;-79
2024/01/12 15:08:07;;;;;;;;;;;;;;;;;;52981;1249;1003455;-80
2024/01/12 15:10:35;;;;;;;;;;;;;;;;;;52891;1251;1004694;-79
2024/01/12 15:13:02;;;;;;;;;;;;;;;;;;52973;1250;1045642;-79
2024/01/12 15:15:28;;;;;;;;;;;;;;;;;;53079;1251;1005180;-79
2024/01/12 15:17:55;;;;;;;;;;;;;;;;;;52848;1253;1061000;-79
2024/01/12 15:20:21;;;;;;;;;;;;;;;;;;52915;1251;1006113;-79
2024/01/12 15:22:48;;;;;;;;;;;;;;;;;;52974;1250;1057384;-79
2024/01/12 15:25:14;;;;;;;;;;;;;;;;;;52953;1254;1005524;-79
2024/01/12 15:27:41;;;;;;;;;;;;;;;;;;52820;1252;1057897;-79
2024/01/12 15:30:07;;;;;;;;;;;;;;;;;;52821;1250;1004978;-79
2024/01/12 15:32:34;;;;;;;;;;;;;;;;;;52844;1254;1038320;-79
2024/01/12 15:35:00;;;;;;;;;;;;;;;;;;52789;1251;1005429;-79
2024/01/12 15:37:27;;;;;;;;;;;;;;;;;;52853;1251;1045264;-79
2024/01/12 15:39:54;;;;;;;;;;;;;;;;;;52889;1251;1005355;-79
2024/01/12 15:42:20;;;;;;;;;;;;;;;;;;52844;1250;1060080;-80
2024/01/12 15:44:47;;;;;;;;;;;;;;;;;;52920;1253;1005144;-79
2024/01/12 15:47:13;;;;;;;;;;;;;;;;;;52829;1254;1057170;-79
2024/01/12 15:49:40;;;;;;;;;;;;;;;;;;52852;1253;1005267;-79
2024/01/12 15:52:06;;;;;;;;;;;;;;;;;;52810;1251;1058324;-79
2024/01/12 15:54:33;;;;;;;;;;;;;;;;;;52766;1251;1005472;-79
2024/01/12 15:56:59;;;;;;;;;;;;;;;;;;52796;1251;1038815;-79
2024/01/12 15:59:26;;;;;;;;;;;;;;;;;;52887;1251;1005423;-79
2024/01/12 16:01:52;;;;;;;;;;;;;;;;;;53057;1251;1045518;-79
2024/01/12 16:04:19;;;;;;;;;;;;;;;;;;52936;1251;1005418;-79
2024/01/12 16:06:46;;;;;;;;;;;;;;;;;;52893;1253;1060515;-79